Time;durP1;ratioP1;P1;durP2;ratioP2;P2;SDS_P1;SDS_P2;PMS_P1;PMS_P2;Temp;Humidity;BMP_temperature;BMP_pressure;BME280_temperature;BME280_humidity;BME280_pressure;Samples;Min_cycle;Max_cycle;Signal;HPM_P1;HPM_P2
2021/07/08 00:00:15;;;;;;;10.27;5.63;;;16.20;99.90;;;;;;5095678;28;20028;-68
2021/07/08 00:02:40;;;;;;;10.52;6.03;;;16.10;99.90;;;;;;5094600;28;20072;-68
2021/07/08 00:05:09;;;;;;;12.77;5.85;;;16.00;99.90;;;;;;5093750;28;20024;-68
2021/07/08 00:07:35;;;;;;;8.02;5.30;;;15.90;99.90;;;;;;5095573;28;20019;-68
2021/07/08 00:10:01;;;;;;;7.88;5.60;;;15.90;99.90;;;;;;5095140;28;20457;-68
2021/07/08 00:12:27;;;;;;;11.45;5.53;;;15.90;99.90;;;;;;5094247;28;20020;-68
2021/07/08 00:14:53;;;;;;;11.90;5.63;;;15.90;99.90;;;;;;5094253;28;20501;-68
2021/07/08 00:17:18;;;;;;;9.15;6.35;;;15.70;99.90;;;;;;5095325;28;20066;-68
2021/07/08 00:19:44;;;;;;;10.93;6.68;;;15.70;99.90;;;;;;5095316;28;20366;-68
2021/07/08 00:22:09;;;;;;;11.38;6.63;;;15.60;99.90;;;;;;5093424;28;20020;-68
2021/07/08 00:24:35;;;;;;;10.15;6.35;;;15.50;99.90;;;;;;5093717;28;20078;-68
2021/07/08 00:27:00;;;;;;;13.20;6.50;;;15.50;99.90;;;;;;5095128;28;20024;-68
2021/07/08 00:29:26;;;;;;;14.93;6.25;;;15.50;99.90;;;;;;5094807;28;20534;-68
2021/07/08 00:31:51;;;;;;;12.02;6.28;;;15.50;99.90;;;;;;5076189;28;20044;-68
2021/07/08 00:34:17;;;;;;;14.15;5.72;;;15.50;99.90;;;;;;5093459;28;20027;-68
2021/07/08 00:36:44;;;;;;;10.80;6.78;;;15.40;99.90;;;;;;5094959;28;20016;-68
2021/07/08 00:39:09;;;;;;;18.30;7.50;;;15.40;99.90;;;;;;5094887;28;20107;-68
2021/07/08 00:41:35;;;;;;;11.65;6.80;;;15.40;99.90;;;;;;5094867;28;20128;-68
2021/07/08 00:44:01;;;;;;;9.40;6.30;;;15.40;99.90;;;;;;5094813;28;20522;-68
2021/07/08 00:46:26;;;;;;;8.27;6.20;;;15.30;99.90;;;;;;5076682;28;20423;-68
2021/07/08 00:48:52;;;;;;;9.57;6.18;;;15.30;99.90;;;;;;5092953;28;20032;-68
2021/07/08 00:51:17;;;;;;;9.07;6.15;;;15.30;99.90;;;;;;5094654;28;20107;-68
2021/07/08 00:53:43;;;;;;;12.77;7.03;;;15.30;99.90;;;;;;5094403;28;20020;-68
2021/07/08 00:56:11;;;;;;;14.07;6.50;;;15.30;99.90;;;;;;5094602;28;20060;-68
2021/07/08 00:58:37;;;;;;;9.23;7.07;;;15.30;99.90;;;;;;5094603;28;20023;-68
2021/07/08 01:01:03;;;;;;;10.88;7.70;;;15.30;99.90;;;;;;5094584;28;20069;-68
2021/07/08 01:03:30;;;;;;;12.90;7.68;;;15.20;99.90;;;;;;5094512;28;20070;-68
2021/07/08 01:05:56;;;;;;;14.60;7.72;;;15.20;99.90;;;;;;5094487;28;20024;-68
2021/07/08 01:08:22;;;;;;;13.80;7.45;;;15.20;99.90;;;;;;5094146;28;20526;-68
2021/07/08 01:10:49;;;;;;;12.43;7.18;;;15.20;99.90;;;;;;5094326;28;20468;-68
2021/07/08 01:13:16;;;;;;;12.93;7.20;;;15.20;99.90;;;;;;5092581;28;20024;-68
2021/07/08 01:15:43;;;;;;;10.77;7.35;;;15.20;99.90;;;;;;5093775;28;20020;-68
2021/07/08 01:18:09;;;;;;;9.70;7.03;;;15.20;99.90;;;;;;5094060;28;20024;-68
2021/07/08 01:20:36;;;;;;;10.32;7.28;;;15.20;99.90;;;;;;5094033;28;20028;-68
2021/07/08 01:23:02;;;;;;;14.10;7.82;;;15.20;99.90;;;;;;5094258;28;20020;-68
2021/07/08 01:25:34;;;;;;;14.80;8.07;;;15.30;99.90;;;;;;5092671;28;20031;-68
2021/07/08 01:28:03;;;;;;;11.10;7.45;;;15.30;99.90;;;;;;5093655;28;20016;-68
2021/07/08 01:30:29;;;;;;;11.15;7.80;;;15.30;99.90;;;;;;5093645;28;20047;-68
2021/07/08 01:32:55;;;;;;;11.48;7.72;;;15.30;99.90;;;;;;5093898;28;20020;-68
2021/07/08 01:35:21;;;;;;;11.38;7.50;;;15.40;99.90;;;;;;5092550;28;20065;-68
2021/07/08 01:37:46;;;;;;;10.90;7.68;;;15.40;99.90;;;;;;5092631;28;20020;-68
2021/07/08 01:40:14;;;;;;;11.20;7.68;;;15.40;99.90;;;;;;5093827;28;20028;-68
2021/07/08 01:42:40;;;;;;;12.10;7.70;;;15.40;99.90;;;;;;5093495;28;20020;-68
2021/07/08 01:45:07;;;;;;;10.70;7.47;;;15.30;99.90;;;;;;5093804;28;20103;-68
2021/07/08 01:47:33;;;;;;;11.98;7.57;;;15.30;99.90;;;;;;5092578;28;20016;-68
2021/07/08 01:49:59;;;;;;;12.85;7.43;;;15.30;99.90;;;;;;5094046;28;20030;-68
2021/07/08 01:52:25;;;;;;;12.98;7.80;;;15.30;99.90;;;;;;5093653;28;20165;-68
2021/07/08 01:54:50;;;;;;;14.27;8.02;;;15.20;99.90;;;;;;5092524;28;20020;-68
2021/07/08 01:57:16;;;;;;;11.85;7.60;;;15.20;99.90;;;;;;5093948;28;20028;-68
2021/07/08 01:59:42;;;;;;;12.70;7.40;;;15.20;99.90;;;;;;5093930;28;20373;-68
2021/07/08 02:02:08;;;;;;;12.80;7.65;;;15.10;99.90;;;;;;5093645;28;20090;-68
2021/07/08 02:04:33;;;;;;;12.77;7.60;;;15.10;99.90;;;;;;5093854;28;20453;-68
2021/07/08 02:06:59;;;;;;;13.45;7.95;;;15.10;99.90;;;;;;5093807;28;20383;-68
2021/07/08 02:09:25;;;;;;;10.15;7.78;;;15.10;99.90;;;;;;5093877;28;20441;-68
2021/07/08 02:11:51;;;;;;;15.55;10.55;;;15.10;99.90;;;;;;5093756;28;20112;-68
2021/07/08 02:14:16;;;;;;;13.40;8.55;;;15.00;99.90;;;;;;5093758;28;20024;-68
2021/07/08 02:16:42;;;;;;;11.07;9.48;;;15.00;99.90;;;;;;5093238;28;20031;-68
2021/07/08 02:19:08;;;;;;;14.52;8.45;;;15.00;99.90;;;;;;5093716;28;20358;-68
2021/07/08 02:21:34;;;;;;;12.02;8.80;;;14.90;99.90;;;;;;5091864;28;20062;-68
2021/07/08 02:23:59;;;;;;;13.30;9.52;;;14.90;99.90;;;;;;5093687;28;20111;-68
2021/07/08 02:26:25;;;;;;;17.10;8.68;;;14.90;99.90;;;;;;5093116;28;20108;-68
2021/07/08 02:28:51;;;;;;;14.75;9.15;;;14.80;99.90;;;;;;5093307;28;20036;-68
2021/07/08 02:31:17;;;;;;;12.63;9.85;;;14.80;99.90;;;;;;5091525;28;20044;-68
2021/07/08 02:33:43;;;;;;;13.75;10.35;;;14.70;99.90;;;;;;5093572;28;20027;-68
2021/07/08 02:36:08;;;;;;;17.08;10.82;;;14.80;99.90;;;;;;5093533;28;20031;-68
2021/07/08 02:38:36;;;;;;;23.45;10.40;;;14.70;99.90;;;;;;5093993;28;20055;-68
2021/07/08 02:41:03;;;;;;;14.20;9.80;;;14.70;99.90;;;;;;5096939;28;20023;-68
2021/07/08 02:43:29;;;;;;;15.27;9.70;;;14.70;99.90;;;;;;5096909;28;20073;-68
2021/07/08 02:45:55;;;;;;;15.63;9.57;;;14.60;99.90;;;;;;5095330;28;20498;-68
2021/07/08 02:48:22;;;;;;;13.65;9.65;;;14.60;99.90;;;;;;5096815;28;20415;-68
2021/07/08 02:50:51;;;;;;;16.70;10.07;;;14.60;99.90;;;;;;5096918;28;20020;-68
2021/07/08 02:53:17;;;;;;;12.88;9.82;;;14.60;99.90;;;;;;5096738;28;20056;-68
2021/07/08 02:55:43;;;;;;;17.52;9.80;;;14.60;99.90;;;;;;5096967;28;20428;-68
2021/07/08 02:58:10;;;;;;;17.23;9.48;;;14.60;99.90;;;;;;5096909;28;20052;-67
2021/07/08 03:00:35;;;;;;;16.67;10.00;;;14.60;99.90;;;;;;5096846;28;20035;-67
2021/07/08 03:03:01;;;;;;;17.98;11.60;;;14.60;99.90;;;;;;5096497;28;20453;-68
2021/07/08 03:05:28;;;;;;;17.23;9.95;;;14.60;99.90;;;;;;5096433;28;20035;-68
2021/07/08 03:07:53;;;;;;;16.75;9.45;;;14.60;99.90;;;;;;5096376;28;20020;-68
2021/07/08 03:10:22;;;;;;;16.52;9.93;;;14.60;99.90;;;;;;5096011;28;20469;-68
2021/07/08 03:12:48;;;;;;;13.23;9.80;;;14.50;99.90;;;;;;5096550;28;20469;-68
2021/07/08 03:15:14;;;;;;;15.05;10.43;;;14.50;99.90;;;;;;5094717;28;20020;-68
2021/07/08 03:17:40;;;;;;;14.85;9.80;;;14.50;99.90;;;;;;5096499;28;20524;-68
2021/07/08 03:20:12;;;;;;;13.07;10.15;;;14.50;99.90;;;;;;5096467;28;20081;-68
2021/07/08 03:22:40;;;;;;;12.52;9.68;;;14.60;99.90;;;;;;5077654;28;20028;-68
2021/07/08 03:25:07;;;;;;;17.45;9.73;;;14.50;99.90;;;;;;5096116;28;20085;-68
2021/07/08 03:27:32;;;;;;;12.98;10.23;;;14.50;99.90;;;;;;5094635;28;20020;-68
2021/07/08 03:29:58;;;;;;;18.08;10.90;;;14.50;99.90;;;;;;5095779;28;20512;-68
2021/07/08 03:32:23;;;;;;;14.88;10.35;;;14.50;99.90;;;;;;5095885;28;20024;-68
2021/07/08 03:34:49;;;;;;;15.57;11.38;;;14.50;99.90;;;;;;5095910;28;20461;-68
2021/07/08 03:37:15;;;;;;;16.38;11.07;;;14.50;99.90;;;;;;5095943;28;20350;-68
2021/07/08 03:39:41;;;;;;;15.98;10.75;;;14.50;99.90;;;;;;5096101;28;20012;-68
2021/07/08 03:42:06;;;;;;;19.77;10.85;;;14.50;99.90;;;;;;5095780;28;20054;-68
2021/07/08 03:44:32;;;;;;;13.38;10.50;;;14.50;99.90;;;;;;5094569;28;20078;-68
2021/07/08 03:46:57;;;;;;;15.90;12.00;;;14.50;99.90;;;;;;5095953;28;20077;-68
2021/07/08 03:49:23;;;;;;;15.50;11.23;;;14.50;99.90;;;;;;5095618;28;20047;-68
2021/07/08 03:51:48;;;;;;;19.65;11.57;;;14.50;99.90;;;;;;5094577;28;20408;-68
2021/07/08 03:54:14;;;;;;;16.13;10.98;;;14.50;99.90;;;;;;5094005;28;20020;-68
2021/07/08 03:56:39;;;;;;;19.35;11.80;;;14.50;99.90;;;;;;5095755;28;20099;-68
2021/07/08 03:59:05;;;;;;;21.80;11.55;;;14.60;99.90;;;;;;5095677;28;20028;-68
2021/07/08 04:01:30;;;;;;;18.52;10.80;;;14.60;99.90;;;;;;5095649;28;20028;-68
2021/07/08 04:03:56;;;;;;;16.98;11.18;;;14.60;99.90;;;;;;5095621;28;20024;-68
2021/07/08 04:06:21;;;;;;;16.75;11.82;;;14.70;99.90;;;;;;5095583;28;20028;-69
2021/07/08 04:08:47;;;;;;;18.08;10.50;;;14.70;99.90;;;;;;5093683;28;20026;-68
2021/07/08 04:11:12;;;;;;;15.02;11.00;;;14.70;99.90;;;;;;5095382;28;20032;-68
2021/07/08 04:13:38;;;;;;;17.20;11.30;;;14.70;99.90;;;;;;5093950;28;20032;-68
2021/07/08 04:16:04;;;;;;;14.18;10.18;;;14.70;99.90;;;;;;5095138;28;20027;-68
2021/07/08 04:18:29;;;;;;;13.93;10.70;;;14.70;99.90;;;;;;5095316;28;20107;-68
2021/07/08 04:20:55;;;;;;;14.70;11.00;;;14.80;99.90;;;;;;5095317;28;20036;-68
2021/07/08 04:23:21;;;;;;;14.38;11.13;;;14.90;99.90;;;;;;5095211;28;20099;-68
2021/07/08 04:25:47;;;;;;;16.63;11.32;;;14.90;99.90;;;;;;5093374;28;20081;-68
2021/07/08 04:28:13;;;;;;;18.20;11.15;;;15.00;99.90;;;;;;5094862;28;20133;-68
2021/07/08 04:30:39;;;;;;;18.15;11.70;;;15.10;99.90;;;;;;5094433;28;20044;-68
2021/07/08 04:33:06;;;;;;;22.98;11.77;;;15.20;99.90;;;;;;5095021;28;20012;-68
2021/07/08 04:35:35;;;;;;;14.32;10.18;;;15.30;99.90;;;;;;5094996;28;20020;-68
2021/07/08 04:38:01;;;;;;;20.38;10.38;;;15.40;99.90;;;;;;5094710;28;20076;-68
2021/07/08 04:40:27;;;;;;;18.05;10.93;;;15.40;99.90;;;;;;5094635;28;20103;-68
2021/07/08 04:42:53;;;;;;;11.55;9.77;;;15.40;99.90;;;;;;5093065;28;20024;-68
2021/07/08 04:45:19;;;;;;;14.18;9.80;;;15.50;99.90;;;;;;5094567;28;20016;-68
2021/07/08 04:47:46;;;;;;;17.20;10.35;;;15.50;99.90;;;;;;5094781;28;20020;-68
2021/07/08 04:50:15;;;;;;;13.77;9.38;;;15.70;99.90;;;;;;5094394;28;20020;-68
2021/07/08 04:52:42;;;;;;;16.40;9.40;;;15.80;99.90;;;;;;5076414;28;20050;-68
2021/07/08 04:55:09;;;;;;;18.25;8.85;;;16.00;99.90;;;;;;5093492;28;20458;-68
2021/07/08 04:57:35;;;;;;;11.70;8.13;;;16.30;99.90;;;;;;5092872;28;20107;-68
2021/07/08 05:00:03;;;;;;;9.77;7.93;;;16.40;99.90;;;;;;5094574;28;20047;-68
2021/07/08 05:02:28;;;;;;;12.13;7.35;;;16.60;99.90;;;;;;5094168;28;20416;-68
2021/07/08 05:04:54;;;;;;;9.48;6.95;;;16.90;99.90;;;;;;5094249;28;20028;-68
2021/07/08 05:07:19;;;;;;;9.88;7.22;;;17.10;99.90;;;;;;5094499;28;20028;-68
2021/07/08 05:09:45;;;;;;;9.65;7.25;;;17.10;99.90;;;;;;5094187;28;20024;-69
2021/07/08 05:12:10;;;;;;;12.27;7.40;;;17.10;99.90;;;;;;5093140;28;20060;-68
2021/07/08 05:14:36;;;;;;;12.35;8.05;;;17.00;99.90;;;;;;5093796;28;20103;-68
2021/07/08 05:17:03;;;;;;;12.90;7.72;;;16.90;99.90;;;;;;5094368;28;20053;-69
2021/07/08 05:19:29;;;;;;;14.30;8.18;;;17.10;99.90;;;;;;5094004;28;20016;-69
2021/07/08 05:21:56;;;;;;;14.32;8.15;;;17.10;99.90;;;;;;5093978;28;20024;-68
2021/07/08 05:24:23;;;;;;;10.88;8.23;;;17.10;99.90;;;;;;5093656;28;20053;-68
2021/07/08 05:26:50;;;;;;;11.93;8.10;;;17.20;99.90;;;;;;5094056;28;20130;-68
2021/07/08 05:29:16;;;;;;;13.18;8.50;;;17.20;99.90;;;;;;5093682;28;20020;-68
2021/07/08 05:31:42;;;;;;;11.75;8.50;;;17.20;99.90;;;;;;5093341;28;20040;-68
2021/07/08 05:34:07;;;;;;;12.40;9.27;;;17.20;99.90;;;;;;5093571;28;20026;-68
2021/07/08 05:36:33;;;;;;;12.05;8.80;;;17.20;99.90;;;;;;5094124;28;20504;-68
2021/07/08 05:38:59;;;;;;;13.57;9.25;;;17.30;99.90;;;;;;5093804;28;20028;-68
2021/07/08 05:41:25;;;;;;;15.63;8.57;;;17.30;99.90;;;;;;5093537;28;20032;-68
2021/07/08 05:43:50;;;;;;;16.45;8.73;;;17.30;99.90;;;;;;5093706;28;20499;-68
2021/07/08 05:46:16;;;;;;;12.32;8.50;;;17.30;99.90;;;;;;5093878;28;20036;-68
2021/07/08 05:48:41;;;;;;;12.82;8.88;;;17.30;99.90;;;;;;5093395;28;20032;-69
2021/07/08 05:51:07;;;;;;;15.68;9.18;;;17.30;99.90;;;;;;5092869;28;20031;-68
2021/07/08 05:53:32;;;;;;;14.30;9.13;;;17.20;99.90;;;;;;5092714;28;20073;-68
2021/07/08 05:55:58;;;;;;;15.23;9.25;;;17.30;99.90;;;;;;5093882;28;20479;-68
2021/07/08 05:58:23;;;;;;;12.77;9.48;;;17.40;99.90;;;;;;5075864;28;20106;-68
2021/07/08 06:00:49;;;;;;;11.88;8.75;;;17.50;99.90;;;;;;5092065;28;20461;-68
2021/07/08 06:03:15;;;;;;;15.32;8.98;;;17.60;99.90;;;;;;5092859;28;20028;-69
2021/07/08 06:05:41;;;;;;;12.98;8.70;;;17.80;99.90;;;;;;5093589;28;20054;-68
2021/07/08 06:08:07;;;;;;;13.43;9.27;;;17.90;99.90;;;;;;5093274;28;20461;-68
2021/07/08 06:10:32;;;;;;;16.08;10.30;;;17.80;99.90;;;;;;5092232;28;20333;-68
2021/07/08 06:12:58;;;;;;;17.48;10.50;;;17.80;99.90;;;;;;5091738;28;20112;-68
2021/07/08 06:15:24;;;;;;;15.93;10.15;;;17.80;99.90;;;;;;5096469;28;20012;-69
2021/07/08 06:17:49;;;;;;;19.60;11.43;;;17.80;99.90;;;;;;5095982;28;20043;-67
2021/07/08 06:20:16;;;;;;;22.70;12.00;;;17.70;99.90;;;;;;5095186;28;20112;-68
2021/07/08 06:22:41;;;;;;;18.60;11.80;;;17.60;99.90;;;;;;5095803;28;20020;-68
2021/07/08 06:25:07;;;;;;;17.65;11.20;;;17.70;99.90;;;;;;5096274;28;20488;-69
2021/07/08 06:27:33;;;;;;;16.60;10.50;;;17.80;99.90;;;;;;5096523;28;20373;-68
2021/07/08 06:29:58;;;;;;;22.13;11.40;;;17.90;99.90;;;;;;5095254;28;20048;-69
2021/07/08 06:32:24;;;;;;;23.35;11.70;;;18.00;99.90;;;;;;5096029;28;20028;-68
2021/07/08 06:34:50;;;;;;;18.70;12.55;;;18.10;99.90;;;;;;5095826;28;20024;-68
2021/07/08 06:37:16;;;;;;;23.02;13.30;;;18.20;99.90;;;;;;5096960;28;20026;-68
2021/07/08 06:39:43;;;;;;;21.23;12.68;;;18.30;99.90;;;;;;5096867;28;20139;-68
2021/07/08 06:42:09;;;;;;;23.63;14.73;;;18.50;99.90;;;;;;5097158;28;20436;-68
2021/07/08 06:44:34;;;;;;;18.45;12.88;;;18.70;99.90;;;;;;5095754;28;20059;-68
2021/07/08 06:47:02;;;;;;;16.88;10.82;;;18.90;99.90;;;;;;5095177;28;20028;-68
2021/07/08 06:49:28;;;;;;;19.35;10.43;;;19.20;99.90;;;;;;5094581;28;20028;-68
2021/07/08 06:51:54;;;;;;;21.60;11.13;;;19.50;99.90;;;;;;5095138;28;20112;-68
2021/07/08 06:54:20;;;;;;;19.95;10.98;;;19.80;99.90;;;;;;5092222;28;20017;-68
2021/07/08 06:56:45;;;;;;;21.77;13.05;;;20.10;99.90;;;;;;5095104;28;20043;-68
2021/07/08 06:59:11;;;;;;;28.58;14.85;;;20.70;99.90;;;;;;5094685;28;20066;-69
2021/07/08 07:01:37;;;;;;;24.00;15.32;;;21.20;99.90;;;;;;5096145;28;20053;-69
2021/07/08 07:04:02;;;;;;;27.13;17.13;;;21.50;99.90;;;;;;5096616;28;20031;-69
2021/07/08 07:06:28;;;;;;;22.23;12.45;;;22.10;99.90;;;;;;5095503;28;20419;-69
2021/07/08 07:08:53;;;;;;;17.75;9.68;;;22.50;99.90;;;;;;5095222;28;20032;-69
2021/07/08 07:11:19;;;;;;;16.75;9.15;;;23.00;99.90;;;;;;5075751;28;20025;-69
2021/07/08 07:13:45;;;;;;;18.50;8.32;;;23.80;99.90;;;;;;5094061;28;20016;-69
2021/07/08 07:16:10;;;;;;;13.60;7.57;;;24.20;99.90;;;;;;5094520;28;20028;-69
2021/07/08 07:18:40;;;;;;;14.73;8.48;;;24.20;99.90;;;;;;5096187;28;20103;-70
2021/07/08 07:21:10;;;;;;;13.70;8.10;;;24.00;99.90;;;;;;5096367;28;20032;-70
2021/07/08 07:23:42;;;;;;;13.75;8.02;;;24.50;99.90;;;;;;5094629;28;20028;-70
2021/07/08 07:26:09;;;;;;;12.20;6.60;;;24.80;99.90;;;;;;5096331;28;20025;-69
2021/07/08 07:28:35;;;;;;;10.60;6.07;;;25.00;99.90;;;;;;5096238;28;20500;-69
2021/07/08 07:31:00;;;;;;;10.18;5.95;;;25.40;99.90;;;;;;5094476;28;20076;-70
2021/07/08 07:33:26;;;;;;;9.30;5.60;;;25.20;99.90;;;;;;5094471;28;20101;-70
2021/07/08 07:35:52;;;;;;;9.68;5.32;;;25.60;99.90;;;;;;5095134;28;20047;-70
2021/07/08 07:38:18;;;;;;;9.82;5.43;;;26.90;99.90;;;;;;5094529;28;20457;-69
2021/07/08 07:40:44;;;;;;;7.68;5.60;;;27.00;99.90;;;;;;5095719;28;20020;-68
2021/07/08 07:43:10;;;;;;;10.48;4.75;;;27.50;99.90;;;;;;5086061;28;20117;-68
2021/07/08 07:45:37;;;;;;;7.65;4.57;;;28.00;99.90;;;;;;5091597;28;20024;-67
2021/07/08 07:48:03;;;;;;;6.75;4.15;;;28.60;99.90;;;;;;5095851;28;20028;-70
2021/07/08 07:50:32;;;;;;;6.32;4.38;;;29.70;99.90;;;;;;5095416;28;20020;-67
2021/07/08 07:52:58;;;;;;;8.98;4.82;;;29.30;99.90;;;;;;5095374;28;20370;-67
2021/07/08 07:55:27;;;;;;;5.43;4.20;;;28.60;99.90;;;;;;5095144;28;20024;-69
2021/07/08 07:57:55;;;;;;;6.55;3.75;;;28.50;99.90;;;;;;5095623;28;20113;-70
2021/07/08 08:00:20;;;;;;;8.07;3.83;;;28.80;99.90;;;;;;5095342;28;20018;-70
2021/07/08 08:02:46;;;;;;;10.95;4.05;;;28.90;99.90;;;;;;5093684;28;20386;-70
2021/07/08 08:10:36;;;;;;;4.38;3.58;;;28.50;99.90;;;;;;5109929;28;20028;-68
2021/07/08 08:13:04;;;;;;;5.30;3.03;;;28.30;99.90;;;;;;5111603;28;20038;-68
2021/07/08 08:15:30;;;;;;;5.28;3.65;;;28.40;99.90;;;;;;5090931;28;20032;-68
2021/07/08 08:18:00;;;;;;;7.43;3.50;;;28.60;99.90;;;;;;5089776;28;20374;-68
2021/07/08 08:20:25;;;;;;;9.23;3.85;;;28.70;99.90;;;;;;5080289;28;20016;-69
2021/07/08 08:22:51;;;;;;;5.78;2.70;;;29.10;99.90;;;;;;5088384;28;20085;-68
2021/07/08 08:25:17;;;;;;;3.70;2.50;;;29.50;99.70;;;;;;5093233;28;20462;-68
2021/07/08 08:27:42;;;;;;;4.65;2.78;;;30.10;98.70;;;;;;5069709;28;20455;-68
2021/07/08 08:30:12;;;;;;;3.13;2.35;;;30.50;96.90;;;;;;5069659;28;20521;-69
2021/07/08 08:32:38;;;;;;;4.40;2.60;;;29.60;97.70;;;;;;5069265;28;20100;-68
2021/07/08 08:35:03;;;;;;;4.85;2.70;;;29.70;98.50;;;;;;5070132;28;20136;-68
2021/07/08 08:37:29;;;;;;;5.15;2.30;;;30.40;96.60;;;;;;5092087;28;20458;-69
2021/07/08 08:39:55;;;;;;;5.65;2.13;;;30.90;94.70;;;;;;5086803;28;20031;-69
2021/07/08 08:42:20;;;;;;;5.55;2.45;;;29.90;94.80;;;;;;5090607;28;20115;-69
2021/07/08 08:44:46;;;;;;;5.00;2.50;;;29.90;95.40;;;;;;5090339;28;20047;-68
2021/07/08 08:47:12;;;;;;;3.90;2.28;;;30.00;95.10;;;;;;5101335;28;20054;-68
2021/07/08 08:49:39;;;;;;;6.20;2.25;;;29.50;96.00;;;;;;5111094;28;20048;-68
2021/07/08 08:52:07;;;;;;;5.28;2.28;;;29.40;96.00;;;;;;5110865;28;20043;-68
2021/07/08 08:54:33;;;;;;;4.25;2.20;;;30.10;95.60;;;;;;5109729;28;20012;-68
2021/07/08 08:56:59;;;;;;;4.20;2.47;;;31.10;94.10;;;;;;5104473;28;20026;-69
2021/07/08 08:59:24;;;;;;;9.60;5.70;;;31.30;93.80;;;;;;5109013;28;20115;-69
2021/07/08 09:02:14;;;;;;;5.88;2.53;;;31.10;94.60;;;;;;5110271;28;20039;-68
2021/07/08 09:04:41;;;;;;;5.45;2.25;;;31.20;93.20;;;;;;5110119;28;20023;-69
2021/07/08 09:07:30;;;;;;;5.78;2.20;;;31.10;92.90;;;;;;5104943;28;20044;-69
2021/07/08 09:09:59;;;;;;;6.10;2.38;;;31.00;92.70;;;;;;5088684;28;20462;-68
2021/07/08 09:12:26;;;;;;;4.93;2.28;;;30.90;93.00;;;;;;5090188;28;20109;-70
2021/07/08 09:15:12;;;;;;;5.57;2.20;;;30.90;91.20;;;;;;5071418;28;20051;-70
2021/07/08 09:17:42;;;;;;;4.65;2.08;;;30.90;90.10;;;;;;5089876;28;20034;-70
2021/07/08 09:20:10;;;;;;;4.57;2.10;;;31.20;88.70;;;;;;5095645;28;20388;-67
2021/07/08 09:22:36;;;;;;;2.63;1.65;;;31.50;85.40;;;;;;5095235;28;20110;-67
2021/07/08 09:25:23;;;;;;;4.63;2.45;;;31.10;84.80;;;;;;5096573;28;20063;-68
2021/07/08 09:27:52;;;;;;;4.47;2.15;;;31.40;87.20;;;;;;5091120;28;20103;-70
2021/07/08 09:30:27;;;;;;;4.47;2.13;;;31.20;87.80;;;;;;5076278;28;20370;-68
2021/07/08 09:32:53;;;;;;;2.53;2.05;;;30.90;90.00;;;;;;5074376;28;20028;-68
2021/07/08 09:35:39;;;;;;;3.33;1.95;;;31.10;87.80;;;;;;5074996;28;20016;-70
2021/07/08 09:38:08;;;;;;;3.65;2.00;;;31.10;87.10;;;;;;5074601;28;20565;-69
2021/07/08 09:40:34;;;;;;;3.38;2.00;;;30.60;87.10;;;;;;5074955;28;20025;-69
2021/07/08 09:42:59;;;;;;;5.45;2.20;;;29.80;90.50;;;;;;5074817;28;20035;-69
2021/07/08 09:45:25;;;;;;;2.25;1.73;;;30.00;89.00;;;;;;5075954;28;20031;-70
2021/07/08 09:47:50;;;;;;;4.85;2.00;;;30.00;86.90;;;;;;5075601;28;20048;-70
2021/07/08 09:50:36;;;;;;;5.32;2.40;;;29.60;87.80;;;;;;5094954;28;20103;-69
2021/07/08 09:53:16;;;;;;;6.20;2.05;;;29.40;88.80;;;;;;5095952;28;20377;-69
2021/07/08 09:58:58;;;;;;;4.85;2.30;;;29.90;87.50;;;;;;5097680;27;20451;-69
2021/07/08 10:01:26;;;;;;;5.32;2.42;;;30.40;87.00;;;;;;5090475;28;20432;-68
2021/07/08 10:03:53;;;;;;;3.00;2.17;;;30.90;82.30;;;;;;5090048;28;20516;-68
2021/07/08 10:06:20;;;;;;;5.03;2.13;;;30.80;85.00;;;;;;5091387;28;20024;-68
2021/07/08 10:08:46;;;;;;;3.45;2.47;;;31.50;83.00;;;;;;5091126;28;20024;-69
2021/07/08 10:11:13;;;;;;;4.78;2.20;;;31.10;79.20;;;;;;5090877;28;20374;-68
2021/07/08 10:13:40;;;;;;;3.20;2.00;;;31.10;79.80;;;;;;5090433;28;20028;-68
2021/07/08 10:16:06;;;;;;;4.15;2.10;;;31.10;79.30;;;;;;5090134;28;20035;-68
2021/07/08 10:18:36;;;;;;;3.80;2.03;;;30.60;84.10;;;;;;5090546;28;20020;-69
2021/07/08 10:21:02;;;;;;;3.80;1.90;;;29.80;86.70;;;;;;5089652;28;20051;-68
2021/07/08 10:23:32;;;;;;;2.47;1.90;;;29.30;88.60;;;;;;5090891;28;20020;-68
2021/07/08 10:25:59;;;;;;;3.67;2.15;;;28.40;91.20;;;;;;5089895;28;20021;-68
2021/07/08 10:28:26;;;;;;;5.13;2.55;;;28.30;90.60;;;;;;5089624;28;20103;-68
2021/07/08 10:30:53;;;;;;;5.78;2.28;;;28.40;91.90;;;;;;5090220;28;20020;-68
2021/07/08 10:33:19;;;;;;;5.65;2.30;;;28.60;89.00;;;;;;5090161;28;20118;-69
2021/07/08 10:35:50;;;;;;;3.08;2.28;;;28.00;87.60;;;;;;5088777;28;20085;-69
2021/07/08 10:38:41;;;;;;;3.20;2.08;;;27.90;94.60;;;;;;5090472;28;20468;-68
2021/07/08 10:43:50;;;;;;;4.05;2.22;;;28.40;87.40;;;;;;5091365;28;20841;-69
2021/07/08 10:46:17;;;;;;;4.75;2.40;;;27.80;89.60;;;;;;5089482;28;20025;-69
2021/07/08 10:48:44;;;;;;;5.40;2.17;;;27.80;90.40;;;;;;5091117;28;20016;-69
2021/07/08 10:54:29;;;;;;;8.95;2.25;;;28.10;94.40;;;;;;5108250;27;20311;-68
2021/07/08 10:56:58;;;;;;;3.63;2.25;;;28.50;90.20;;;;;;5089816;28;20042;-68
2021/07/08 10:59:37;;;;;;;3.25;2.40;;;28.40;90.70;;;;;;5072013;28;20032;-68
2021/07/08 11:02:03;;;;;;;4.15;2.50;;;28.10;90.00;;;;;;5090111;28;20385;-68
2021/07/08 11:04:50;;;;;;;2.55;2.05;;;27.80;90.80;;;;;;5089606;28;20033;-68
2021/07/08 11:07:21;;;;;;;8.20;2.40;;;27.50;92.20;;;;;;5090408;28;20111;-68
2021/07/08 11:10:06;;;;;;;3.88;2.70;;;27.20;93.60;;;;;;5091272;28;20027;-68
2021/07/08 11:12:34;;;;;;;5.95;2.45;;;27.20;95.00;;;;;;5091029;28;20477;-68
2021/07/08 11:15:00;;;;;;;4.88;2.67;;;26.80;95.70;;;;;;5089818;28;20024;-68
2021/07/08 11:17:26;;;;;;;7.07;2.83;;;26.80;97.00;;;;;;5089804;28;20024;-68
2021/07/08 11:19:54;;;;;;;4.57;2.47;;;26.60;97.40;;;;;;5090298;28;20469;-68
2021/07/08 11:22:28;;;;;;;7.28;2.63;;;26.40;98.50;;;;;;5091038;28;20032;-68
2021/07/08 11:24:54;;;;;;;5.10;2.70;;;26.20;98.90;;;;;;5089506;28;20028;-68
2021/07/08 11:30:02;;;;;;;9.40;4.28;;;26.00;98.90;;;;;;5091656;28;20858;-68
2021/07/08 11:33:01;;;;;;;4.60;3.28;;;25.20;99.90;;;;;;5089731;28;20488;-68
2021/07/08 11:35:36;;;;;;;6.10;3.45;;;24.90;99.90;;;;;;5090427;28;20028;-68
2021/07/08 11:38:18;;;;;;;5.82;3.95;;;24.80;99.90;;;;;;5090269;28;20028;-68
2021/07/08 11:40:47;;;;;;;7.15;3.78;;;24.10;99.90;;;;;;5085888;28;20539;-68
2021/07/08 11:43:28;;;;;;;6.18;3.65;;;23.30;99.90;;;;;;5089924;28;20030;-68
2021/07/08 11:45:56;;;;;;;8.00;3.72;;;23.10;99.90;;;;;;5088566;28;20024;-68
2021/07/08 11:48:28;;;;;;;5.45;3.63;;;23.40;99.90;;;;;;5090895;28;20017;-68
2021/07/08 11:50:54;;;;;;;7.17;4.50;;;23.40;99.90;;;;;;5090775;28;20078;-68
2021/07/08 11:53:21;;;;;;;6.63;3.90;;;23.60;99.90;;;;;;5090931;28;20020;-68
2021/07/08 11:55:50;;;;;;;5.65;4.10;;;23.50;99.90;;;;;;5090353;28;20062;-68
2021/07/08 11:58:22;;;;;;;9.70;4.32;;;23.50;99.90;;;;;;5090023;28;20028;-68
2021/07/08 12:00:49;;;;;;;7.43;3.83;;;23.90;99.90;;;;;;5089807;28;20117;-69
2021/07/08 12:06:17;;;;;;;4.40;3.15;;;24.20;99.90;;;;;;5111519;27;20828;-68
2021/07/08 12:08:46;;;;;;;4.78;3.53;;;24.70;99.90;;;;;;5095020;28;20020;-68
2021/07/08 12:16:34;;;;;;;7.90;3.90;;;24.50;99.90;;;;;;5112074;27;20408;-68
2021/07/08 12:19:04;;;;;;;7.80;3.30;;;24.80;99.90;;;;;;5109722;28;20102;-68
2021/07/08 12:21:34;;;;;;;4.10;3.13;;;24.70;99.90;;;;;;5110629;28;20027;-68
2021/07/08 12:24:06;;;;;;;4.22;3.10;;;24.60;99.90;;;;;;5111460;28;20024;-68
2021/07/08 12:26:35;;;;;;;4.75;2.95;;;24.90;99.90;;;;;;5111724;28;20440;-68
2021/07/08 12:29:34;;;;;;;4.25;3.10;;;25.20;99.90;;;;;;5111200;28;20050;-68
2021/07/08 12:32:03;;;;;;;6.82;3.55;;;25.20;99.90;;;;;;5111081;28;20024;-68
2021/07/08 12:34:48;;;;;;;5.18;4.18;;;25.30;99.90;;;;;;5110084;28;20110;-68
2021/07/08 12:37:34;;;;;;;8.70;4.35;;;25.10;99.90;;;;;;5110615;28;20043;-67
2021/07/08 12:42:44;;;;;;;9.20;4.15;;;24.50;99.90;;;;;;5108419;27;20421;-67
2021/07/08 12:45:13;;;;;;;7.78;4.93;;;24.50;99.90;;;;;;5098612;28;20027;-68
2021/07/08 12:47:45;;;;;;;6.40;4.30;;;23.70;99.90;;;;;;5111464;28;20050;-68
2021/07/08 12:50:14;;;;;;;7.43;4.68;;;23.90;99.90;;;;;;5094033;28;20017;-68
2021/07/08 12:52:42;;;;;;;8.82;4.97;;;24.10;99.90;;;;;;5091377;28;20424;-68
2021/07/08 12:55:08;;;;;;;6.63;4.38;;;24.20;99.90;;;;;;5099982;28;20024;-68
2021/07/08 12:57:34;;;;;;;7.90;4.70;;;24.10;99.90;;;;;;5111129;28;20016;-68
2021/07/08 13:00:05;;;;;;;9.30;5.13;;;24.00;99.90;;;;;;5111417;28;20039;-68
2021/07/08 13:02:33;;;;;;;6.40;3.90;;;24.10;99.90;;;;;;5090718;28;20082;-68
2021/07/08 13:05:05;;;;;;;6.97;4.50;;;24.10;99.90;;;;;;5091038;28;20070;-68
2021/07/08 13:07:32;;;;;;;7.03;4.40;;;24.20;99.90;;;;;;5091091;28;20023;-68